sensor_id;sensor_type;location;lat;lon;timestamp;pressure;altitude;pressure_sealevel;temperature;humidity
48041;BME280;33815;48.386;11.738;2022-12-18T00:01:52;97667.41;;;-7.32;100.00
48041;BME280;33815;48.386;11.738;2022-12-18T00:04:23;97672.44;;;-7.29;100.00
48041;BME280;33815;48.386;11.738;2022-12-18T00:06:48;97661.25;;;-7.08;100.00
48041;BME280;33815;48.386;11.738;2022-12-18T00:09:14;97679.91;;;-7.13;100.00
48041;BME280;33815;48.386;11.738;2022-12-18T00:11:40;97682.47;;;-7.16;100.00
48041;BME280;33815;48.386;11.738;2022-12-18T00:14:05;97691.88;;;-7.32;100.00
48041;BME280;33815;48.386;11.738;2022-12-18T00:16:31;97689.19;;;-7.17;100.00
48041;BME280;33815;48.386;11.738;2022-12-18T00:18:59;97691.66;;;-7.08;100.00
48041;BME280;33815;48.386;11.738;2022-12-18T00:21:25;97695.13;;;-7.16;100.00
48041;BME280;33815;48.386;11.738;2022-12-18T00:23:51;97689.19;;;-7.17;100.00
48041;BME280;33815;48.386;11.738;2022-12-18T00:26:22;97688.47;;;-7.25;100.00
48041;BME280;33815;48.386;11.738;2022-12-18T00:28:48;97697.81;;;-7.32;100.00
48041;BME280;33815;48.386;11.738;2022-12-18T00:31:16;97687.72;;;-7.41;100.00
48041;BME280;33815;48.386;11.738;2022-12-18T00:33:42;97701.06;;;-7.20;100.00
48041;BME280;33815;48.386;11.738;2022-12-18T00:36:14;97693.53;;;-7.28;100.00
48041;BME280;33815;48.386;11.738;2022-12-18T00:38:39;97685.03;;;-7.23;100.00
48041;BME280;33815;48.386;11.738;2022-12-18T00:41:06;97682.56;;;-7.27;100.00
48041;BME280;33815;48.386;11.738;2022-12-18T00:43:31;97699.31;;;-7.15;100.00
48041;BME280;33815;48.386;11.738;2022-12-18T00:45:57;97676.63;;;-7.26;100.00
48041;BME280;33815;48.386;11.738;2022-12-18T00:48:22;97677.34;;;-7.13;100.00
48041;BME280;33815;48.386;11.738;2022-12-18T00:50:49;97700.13;;;-7.10;100.00
48041;BME280;33815;48.386;11.738;2022-12-18T00:53:15;97684.25;;;-7.26;100.00
48041;BME280;33815;48.386;11.738;2022-12-18T00:55:40;97700.19;;;-7.15;100.00
48041;BME280;33815;48.386;11.738;2022-12-18T00:58:07;97699.31;;;-7.12;100.00
48041;BME280;33815;48.386;11.738;2022-12-18T01:00:32;97701.84;;;-7.15;100.00
48041;BME280;33815;48.386;11.738;2022-12-18T01:02:58;97714.25;;;-6.83;100.00
48041;BME280;33815;48.386;11.738;2022-12-18T01:05:23;97707.69;;;-7.04;100.00
48041;BME280;33815;48.386;11.738;2022-12-18T01:07:49;97712.53;;;-6.82;100.00
48041;BME280;33815;48.386;11.738;2022-12-18T01:10:14;97719.41;;;-6.94;100.00
48041;BME280;33815;48.386;11.738;2022-12-18T01:12:40;97716.13;;;-7.03;100.00
48041;BME280;33815;48.386;11.738;2022-12-18T01:15:07;97723.59;;;-6.90;100.00
48041;BME280;33815;48.386;11.738;2022-12-18T01:17:33;97712.47;;;-6.78;100.00
48041;BME280;33815;48.386;11.738;2022-12-18T01:19:58;97723.53;;;-6.85;100.00
48041;BME280;33815;48.386;11.738;2022-12-18T01:22:24;97722.69;;;-6.84;100.00
48041;BME280;33815;48.386;11.738;2022-12-18T01:24:49;97725.22;;;-6.84;100.00
48041;BME280;33815;48.386;11.738;2022-12-18T01:27:14;97716.13;;;-7.03;100.00
48041;BME280;33815;48.386;11.738;2022-12-18T01:29:40;97729.59;;;-7.00;100.00
48041;BME280;33815;48.386;11.738;2022-12-18T01:32:05;97730.19;;;-6.72;100.00
48041;BME280;33815;48.386;11.738;2022-12-18T01:34:30;97726.06;;;-6.83;100.00
48041;BME280;33815;48.386;11.738;2022-12-18T01:36:56;97732.00;;;-6.84;100.00
48041;BME280;33815;48.386;11.738;2022-12-18T01:39:21;97734.44;;;-6.77;100.00
48041;BME280;33815;48.386;11.738;2022-12-18T01:41:46;97760.59;;;-6.72;100.00
48041;BME280;33815;48.386;11.738;2022-12-18T01:50:31;97769.03;;;-6.69;100.00
48041;BME280;33815;48.386;11.738;2022-12-18T01:53:17;97770.88;;;-6.85;100.00
48041;BME280;33815;48.386;11.738;2022-12-18T01:58:13;97767.50;;;-6.84;100.00
48041;BME280;33815;48.386;11.738;2022-12-18T02:00:38;97752.88;;;-6.59;100.00
48041;BME280;33815;48.386;11.738;2022-12-18T02:03:04;97770.75;;;-6.75;100.00
48041;BME280;33815;48.386;11.738;2022-12-18T02:05:57;97749.66;;;-6.75;100.00
48041;BME280;33815;48.386;11.738;2022-12-18T02:14:21;97742.72;;;-6.58;100.00
48041;BME280;33815;48.386;11.738;2022-12-18T02:17:06;97740.13;;;-6.53;100.00
48041;BME280;33815;48.386;11.738;2022-12-18T02:25:05;97744.56;;;-6.75;100.00
48041;BME280;33815;48.386;11.738;2022-12-18T02:27:32;97737.00;;;-6.77;100.00
48041;BME280;33815;48.386;11.738;2022-12-18T02:29:59;97737.81;;;-6.76;100.00
48041;BME280;33815;48.386;11.738;2022-12-18T02:32:29;97741.22;;;-6.77;100.00
48041;BME280;33815;48.386;11.738;2022-12-18T02:34:57;97741.25;;;-6.82;100.00
48041;BME280;33815;48.386;11.738;2022-12-18T02:37:24;97737.00;;;-6.78;100.00
48041;BME280;33815;48.386;11.738;2022-12-18T02:39:53;97739.53;;;-6.77;100.00
48041;BME280;33815;48.386;11.738;2022-12-18T02:42:19;97736.91;;;-6.71;100.00
48041;BME280;33815;48.386;11.738;2022-12-18T02:44:48;97741.06;;;-6.60;100.00
48041;BME280;33815;48.386;11.738;2022-12-18T02:47:20;97731.84;;;-6.71;100.00
48041;BME280;33815;48.386;11.738;2022-12-18T02:58:37;97736.63;;;-6.43;100.00
48041;BME280;33815;48.386;11.738;2022-12-18T03:01:14;97743.63;;;-6.63;100.00
48041;BME280;33815;48.386;11.738;2022-12-18T03:03:57;97746.81;;;-6.46;100.00
48041;BME280;33815;48.386;11.738;2022-12-18T03:06:33;97741.78;;;-6.50;100.00
48041;BME280;33815;48.386;11.738;2022-12-18T03:09:13;97717.25;;;-6.48;100.00
48041;BME280;33815;48.386;11.738;2022-12-18T03:11:42;97713.03;;;-6.51;100.00
48041;BME280;33815;48.386;11.738;2022-12-18T03:14:30;97723.16;;;-6.46;100.00
48041;BME280;33815;48.386;11.738;2022-12-18T03:17:02;97724.00;;;-6.47;100.00
48041;BME280;33815;48.386;11.738;2022-12-18T03:19:29;97721.44;;;-6.46;100.00
48041;BME280;33815;48.386;11.738;2022-12-18T03:21:57;97718.03;;;-6.43;100.00
48041;BME280;33815;48.386;11.738;2022-12-18T03:24:26;97712.22;;;-6.51;100.00
48041;BME280;33815;48.386;11.738;2022-12-18T03:26:54;97721.38;;;-6.41;100.00
48041;BME280;33815;48.386;11.738;2022-12-18T03:29:26;97731.31;;;-6.21;100.00
48041;BME280;33815;48.386;11.738;2022-12-18T03:31:58;97734.06;;;-6.41;100.00
48041;BME280;33815;48.386;11.738;2022-12-18T03:34:29;97717.00;;;-6.30;100.00
48041;BME280;33815;48.386;11.738;2022-12-18T03:36:56;97729.47;;;-6.10;100.00
48041;BME280;33815;48.386;11.738;2022-12-18T03:39:23;97734.59;;;-6.13;100.00
48041;BME280;33815;48.386;11.738;2022-12-18T03:41:58;97736.53;;;-6.33;100.00
48041;BME280;33815;48.386;11.738;2022-12-18T03:52:36;97745.13;;;-6.48;100.00
48041;BME280;33815;48.386;11.738;2022-12-18T03:55:03;97737.53;;;-6.48;100.00
48041;BME280;33815;48.386;11.738;2022-12-18T03:57:31;97718.94;;;-6.49;100.00
48041;BME280;33815;48.386;11.738;2022-12-18T04:00:02;97728.19;;;-6.43;100.00
48041;BME280;33815;48.386;11.738;2022-12-18T04:02:28;97718.78;;;-6.35;100.00
48041;BME280;33815;48.386;11.738;2022-12-18T04:04:57;97724.84;;;-6.48;100.00
48041;BME280;33815;48.386;11.738;2022-12-18T04:07:24;97739.97;;;-6.38;100.00
48041;BME280;33815;48.386;11.738;2022-12-18T04:09:53;97745.91;;;-6.40;100.00
48041;BME280;33815;48.386;11.738;2022-12-18T04:12:20;97739.19;;;-6.46;100.00
48041;BME280;33815;48.386;11.738;2022-12-18T04:14:46;97742.56;;;-6.44;100.00
48041;BME280;33815;48.386;11.738;2022-12-18T04:17:11;97740.91;;;-6.46;100.00
48041;BME280;33815;48.386;11.738;2022-12-18T04:19:36;97745.06;;;-6.41;100.00
48041;BME280;33815;48.386;11.738;2022-12-18T04:22:01;97730.94;;;-6.65;100.00
48041;BME280;33815;48.386;11.738;2022-12-18T04:24:27;97745.25;;;-6.56;100.00
48041;BME280;33815;48.386;11.738;2022-12-18T04:26:52;97743.41;;;-6.45;100.00
48041;BME280;33815;48.386;11.738;2022-12-18T04:29:17;97734.00;;;-6.35;100.00
48041;BME280;33815;48.386;11.738;2022-12-18T04:31:43;97706.47;;;-6.71;100.00
48041;BME280;33815;48.386;11.738;2022-12-18T04:34:08;97735.72;;;-6.39;100.00
48041;BME280;33815;48.386;11.738;2022-12-18T04:36:33;97740.94;;;-6.51;100.00
48041;BME280;33815;48.386;11.738;2022-12-18T04:38:58;97747.00;;;-6.64;100.00
48041;BME280;33815;48.386;11.738;2022-12-18T04:41:24;97773.13;;;-6.55;100.00
48041;BME280;33815;48.386;11.738;2022-12-18T04:43:49;97761.38;;;-6.63;100.00
48041;BME280;33815;48.386;11.738;2022-12-18T04:46:14;97769.63;;;-6.46;100.00
48041;BME280;33815;48.386;11.738;2022-12-18T04:48:40;97772.09;;;-6.37;100.00
48041;BME280;33815;48.386;11.738;2022-12-18T04:51:06;97772.09;;;-6.40;100.00
48041;BME280;33815;48.386;11.738;2022-12-18T04:53:32;97772.03;;;-6.33;100.00
48041;BME280;33815;48.386;11.738;2022-12-18T04:56:05;97767.34;;;-6.67;100.00
48041;BME280;33815;48.386;11.738;2022-12-18T04:58:30;97785.72;;;-6.48;100.00
48041;BME280;33815;48.386;11.738;2022-12-18T05:00:55;97776.47;;;-6.54;100.00
48041;BME280;33815;48.386;11.738;2022-12-18T05:03:21;97773.94;;;-6.54;100.00
48041;BME280;33815;48.386;11.738;2022-12-18T05:05:49;97784.16;;;-6.60;100.00
48041;BME280;33815;48.386;11.738;2022-12-18T05:08:15;97767.25;;;-6.61;100.00
48041;BME280;33815;48.386;11.738;2022-12-18T05:10:41;97781.56;;;-6.54;100.00
48041;BME280;33815;48.386;11.738;2022-12-18T05:13:06;97779.84;;;-6.52;100.00
48041;BME280;33815;48.386;11.738;2022-12-18T05:15:32;97774.81;;;-6.58;100.00
48041;BME280;33815;48.386;11.738;2022-12-18T05:17:58;97782.50;;;-6.63;100.00
48041;BME280;33815;48.386;11.738;2022-12-18T05:20:24;97795.81;;;-6.45;100.00
48041;BME280;33815;48.386;11.738;2022-12-18T05:22:50;97797.53;;;-6.46;100.00
48041;BME280;33815;48.386;11.738;2022-12-18T05:25:16;97783.16;;;-6.45;100.00
48041;BME280;33815;48.386;11.738;2022-12-18T05:27:41;97776.34;;;-6.42;100.00
48041;BME280;33815;48.386;11.738;2022-12-18T05:30:08;97785.78;;;-6.53;100.00
48041;BME280;33815;48.386;11.738;2022-12-18T05:32:33;97791.53;;;-6.39;100.00
48041;BME280;33815;48.386;11.738;2022-12-18T05:34:58;97781.38;;;-6.37;100.00
48041;BME280;33815;48.386;11.738;2022-12-18T05:37:24;97789.94;;;-6.46;100.00
48041;BME280;33815;48.386;11.738;2022-12-18T05:39:49;97773.88;;;-6.46;100.00
48041;BME280;33815;48.386;11.738;2022-12-18T05:42:14;97789.09;;;-6.45;100.00
48041;BME280;33815;48.386;11.738;2022-12-18T05:44:40;97779.09;;;-6.62;100.00
48041;BME280;33815;48.386;11.738;2022-12-18T05:47:05;97793.38;;;-6.51;100.00
48041;BME280;33815;48.386;11.738;2022-12-18T05:49:31;97782.34;;;-6.47;100.00
48041;BME280;33815;48.386;11.738;2022-12-18T05:51:56;97807.75;;;-6.55;100.00
48041;BME280;33815;48.386;11.738;2022-12-18T05:54:22;97802.75;;;-6.60;100.00
48041;BME280;33815;48.386;11.738;2022-12-18T05:56:47;97798.41;;;-6.48;100.00
48041;BME280;33815;48.386;11.738;2022-12-18T05:59:12;97808.63;;;-6.56;100.00
48041;BME280;33815;48.386;11.738;2022-12-18T06:01:37;97796.03;;;-6.65;100.00
48041;BME280;33815;48.386;11.738;2022-12-18T06:04:03;97820.41;;;-6.50;100.00
48041;BME280;33815;48.386;11.738;2022-12-18T06:06:28;97816.38;;;-6.70;100.00
48041;BME280;33815;48.386;11.738;2022-12-18T06:08:54;97824.78;;;-6.66;100.00
48041;BME280;33815;48.386;11.738;2022-12-18T06:11:22;97822.22;;;-6.65;100.00
48041;BME280;33815;48.386;11.738;2022-12-18T06:13:55;97815.50;;;-6.66;100.00
48041;BME280;33815;48.386;11.738;2022-12-18T06:16:20;97817.03;;;-6.52;100.00
48041;BME280;33815;48.386;11.738;2022-12-18T06:18:46;97814.63;;;-6.63;100.00
48041;BME280;33815;48.386;11.738;2022-12-18T06:21:11;97807.91;;;-6.67;100.00
48041;BME280;33815;48.386;11.738;2022-12-18T06:23:36;97801.13;;;-6.67;100.00
48041;BME280;33815;48.386;11.738;2022-12-18T06:26:04;97820.59;;;-6.72;100.00
48041;BME280;33815;48.386;11.738;2022-12-18T06:28:30;97815.50;;;-6.67;100.00
48041;BME280;33815;48.386;11.738;2022-12-18T06:30:55;97826.53;;;-6.75;100.00
48041;BME280;33815;48.386;11.738;2022-12-18T06:33:21;97822.81;;;-6.40;100.00
48041;BME280;33815;48.386;11.738;2022-12-18T06:35:46;97827.25;;;-6.59;100.00
48041;BME280;33815;48.386;11.738;2022-12-18T06:38:11;97829.78;;;-6.59;100.00
48041;BME280;33815;48.386;11.738;2022-12-18T06:40:38;97828.16;;;-6.64;100.00
48041;BME280;33815;48.386;11.738;2022-12-18T06:43:04;97817.28;;;-6.77;100.00
48041;BME280;33815;48.386;11.738;2022-12-18T06:45:29;97834.03;;;-6.59;100.00
48041;BME280;33815;48.386;11.738;2022-12-18T06:47:55;97849.34;;;-6.70;100.00
48041;BME280;33815;48.386;11.738;2022-12-18T06:50:20;97849.38;;;-6.78;100.00
48041;BME280;33815;48.386;11.738;2022-12-18T06:52:45;97851.00;;;-6.66;100.00
48041;BME280;33815;48.386;11.738;2022-12-18T06:55:11;97833.94;;;-6.50;100.00
48041;BME280;33815;48.386;11.738;2022-12-18T06:57:37;97860.13;;;-6.46;100.00
48041;BME280;33815;48.386;11.738;2022-12-18T07:00:05;97861.09;;;-6.61;100.00
48041;BME280;33815;48.386;11.738;2022-12-18T07:02:31;97841.75;;;-6.72;100.00
48041;BME280;33815;48.386;11.738;2022-12-18T07:04:57;97852.78;;;-6.77;100.00
48041;BME280;33815;48.386;11.738;2022-12-18T07:07:22;97865.28;;;-6.57;100.00
48041;BME280;33815;48.386;11.738;2022-12-18T07:09:50;97864.59;;;-6.78;100.00
48041;BME280;33815;48.386;11.738;2022-12-18T07:12:15;97871.28;;;-6.71;100.00
48041;BME280;33815;48.386;11.738;2022-12-18T07:14:40;97873.72;;;-6.57;100.00
48041;BME280;33815;48.386;11.738;2022-12-18T07:17:06;97861.28;;;-6.86;100.00
48041;BME280;33815;48.386;11.738;2022-12-18T07:19:31;97885.63;;;-6.66;100.00
48041;BME280;33815;48.386;11.738;2022-12-18T07:21:56;97881.44;;;-6.67;100.00
48041;BME280;33815;48.386;11.738;2022-12-18T07:24:21;97870.53;;;-6.79;100.00
48041;BME280;33815;48.386;11.738;2022-12-18T07:26:47;97891.59;;;-6.72;100.00
48041;BME280;33815;48.386;11.738;2022-12-18T07:29:12;97873.81;;;-6.71;100.00
48041;BME280;33815;48.386;11.738;2022-12-18T07:31:38;97879.78;;;-6.76;100.00
48041;BME280;33815;48.386;11.738;2022-12-18T07:34:04;97883.94;;;-6.64;100.00
48041;BME280;33815;48.386;11.738;2022-12-18T07:36:29;97887.25;;;-6.56;100.00
48041;BME280;33815;48.386;11.738;2022-12-18T07:38:54;97893.31;;;-6.74;100.00
48041;BME280;33815;48.386;11.738;2022-12-18T07:41:20;97885.75;;;-6.77;100.00
48041;BME280;33815;48.386;11.738;2022-12-18T07:43:46;97868.91;;;-6.91;100.00
48041;BME280;33815;48.386;11.738;2022-12-18T07:46:12;97886.53;;;-6.72;100.00
48041;BME280;33815;48.386;11.738;2022-12-18T07:48:41;97871.28;;;-6.71;100.00
48041;BME280;33815;48.386;11.738;2022-12-18T07:51:07;97886.47;;;-6.64;100.00
48041;BME280;33815;48.386;11.738;2022-12-18T07:53:34;97892.31;;;-6.55;100.00
48041;BME280;33815;48.386;11.738;2022-12-18T07:56:03;97898.25;;;-6.59;100.00
48041;BME280;33815;48.386;11.738;2022-12-18T07:58:29;97891.47;;;-6.52;100.00
48041;BME280;33815;48.386;11.738;2022-12-18T08:01:05;97893.84;;;-6.37;100.00
48041;BME280;33815;48.386;11.738;2022-12-18T08:03:31;97888.03;;;-6.49;100.00
48041;BME280;33815;48.386;11.738;2022-12-18T08:06:04;97888.03;;;-6.48;100.00
48041;BME280;33815;48.386;11.738;2022-12-18T08:08:31;97867.75;;;-6.48;100.00
48041;BME280;33815;48.386;11.738;2022-12-18T08:10:57;97886.38;;;-6.50;100.00
48041;BME280;33815;48.386;11.738;2022-12-18T08:13:23;97887.31;;;-6.65;100.00
48041;BME280;33815;48.386;11.738;2022-12-18T08:15:59;97888.94;;;-6.57;100.00
48041;BME280;33815;48.386;11.738;2022-12-18T08:18:25;97885.47;;;-6.45;100.00
48041;BME280;33815;48.386;11.738;2022-12-18T08:20:50;97898.03;;;-6.34;100.00
48041;BME280;33815;48.386;11.738;2022-12-18T08:23:16;97907.34;;;-6.34;100.00
48041;BME280;33815;48.386;11.738;2022-12-18T08:25:41;97900.66;;;-6.42;100.00
48041;BME280;33815;48.386;11.738;2022-12-18T08:28:06;97908.34;;;-6.48;100.00
48041;BME280;33815;48.386;11.738;2022-12-18T08:30:32;97900.78;;;-6.57;100.00
48041;BME280;33815;48.386;11.738;2022-12-18T08:32:57;97908.31;;;-6.46;100.00
48041;BME280;33815;48.386;11.738;2022-12-18T08:35:23;97902.22;;;-6.30;100.00
48041;BME280;33815;48.386;11.738;2022-12-18T08:37:48;97904.03;;;-6.43;100.00
48041;BME280;33815;48.386;11.738;2022-12-18T08:40:13;97910.81;;;-6.42;100.00
48041;BME280;33815;48.386;11.738;2022-12-18T08:42:39;97899.84;;;-6.47;100.00
48041;BME280;33815;48.386;11.738;2022-12-18T08:45:23;97926.63;;;-6.13;100.00
48041;BME280;33815;48.386;11.738;2022-12-18T08:47:49;97926.72;;;-6.23;100.00
48041;BME280;33815;48.386;11.738;2022-12-18T08:50:15;97926.69;;;-6.21;100.00
48041;BME280;33815;48.386;11.738;2022-12-18T08:52:40;97930.59;;;-5.92;100.00
48041;BME280;33815;48.386;11.738;2022-12-18T08:55:06;97933.22;;;-5.97;100.00
48041;BME280;33815;48.386;11.738;2022-12-18T08:57:31;97919.72;;;-5.97;100.00
48041;BME280;33815;48.386;11.738;2022-12-18T08:59:57;97927.41;;;-6.07;100.00
48041;BME280;33815;48.386;11.738;2022-12-18T09:02:22;97909.81;;;-6.24;100.00
48041;BME280;33815;48.386;11.738;2022-12-18T09:04:47;97934.16;;;-6.04;100.00
48041;BME280;33815;48.386;11.738;2022-12-18T09:07:13;97915.63;;;-6.14;100.00
48041;BME280;33815;48.386;11.738;2022-12-18T09:09:38;97918.91;;;-6.03;100.00
48041;BME280;33815;48.386;11.738;2022-12-18T09:12:04;97926.50;;;-6.01;100.00
48041;BME280;33815;48.386;11.738;2022-12-18T09:14:29;97932.31;;;-5.93;100.00
48041;BME280;33815;48.386;11.738;2022-12-18T09:16:54;97934.91;;;-5.96;100.00
48041;BME280;33815;48.386;11.738;2022-12-18T09:19:19;97931.34;;;-5.78;100.00
48041;BME280;33815;48.386;11.738;2022-12-18T09:21:45;97927.09;;;-5.77;100.00
48041;BME280;33815;48.386;11.738;2022-12-18T09:24:12;97923.66;;;-5.75;100.00
48041;BME280;33815;48.386;11.738;2022-12-18T09:26:38;97919.47;;;-5.79;100.00
48041;BME280;33815;48.386;11.738;2022-12-18T09:29:04;97922.31;;;-6.05;100.00
48041;BME280;33815;48.386;11.738;2022-12-18T09:31:29;97928.09;;;-5.94;100.00
48041;BME280;33815;48.386;11.738;2022-12-18T09:33:55;97911.09;;;-5.87;100.00
48041;BME280;33815;48.386;11.738;2022-12-18T09:36:21;97923.84;;;-5.90;100.00
48041;BME280;33815;48.386;11.738;2022-12-18T09:38:47;97917.97;;;-5.95;100.00
48041;BME280;33815;48.386;11.738;2022-12-18T09:44:29;97923.09;;;-5.98;100.00
48041;BME280;33815;48.386;11.738;2022-12-18T09:47:03;97922.16;;;-5.91;100.00
48041;BME280;33815;48.386;11.738;2022-12-18T09:49:31;97902.66;;;-5.89;100.00
48041;BME280;33815;48.386;11.738;2022-12-18T09:52:04;97916.88;;;-5.73;100.00
48041;BME280;33815;48.386;11.738;2022-12-18T09:54:38;97908.47;;;-5.81;100.00
48041;BME280;33815;48.386;11.738;2022-12-18T09:57:04;97913.50;;;-5.75;100.00
48041;BME280;33815;48.386;11.738;2022-12-18T09:59:36;97898.16;;;-5.62;100.00
48041;BME280;33815;48.386;11.738;2022-12-18T10:02:19;97895.59;;;-5.64;100.00
48041;BME280;33815;48.386;11.738;2022-12-18T10:05:02;97893.03;;;-5.61;100.00
48041;BME280;33815;48.386;11.738;2022-12-18T10:07:51;97888.69;;;-5.51;100.00
48041;BME280;33815;48.386;11.738;2022-12-18T10:21:28;97879.22;;;-5.40;100.00
48041;BME280;33815;48.386;11.738;2022-12-18T10:24:02;97867.38;;;-5.41;100.00
48041;BME280;33815;48.386;11.738;2022-12-18T10:26:34;97845.44;;;-5.48;100.00
48041;BME280;33815;48.386;11.738;2022-12-18T10:28:59;97830.28;;;-5.54;100.00
48041;BME280;33815;48.386;11.738;2022-12-18T10:31:25;97871.16;;;-5.07;100.00
48041;BME280;33815;48.386;11.738;2022-12-18T10:33:53;97873.00;;;-5.17;100.00
48041;BME280;33815;48.386;11.738;2022-12-18T10:36:18;97863.59;;;-5.12;100.00
48041;BME280;33815;48.386;11.738;2022-12-18T10:38:45;97866.03;;;-5.04;100.00
48041;BME280;33815;48.386;11.738;2022-12-18T10:43:47;97866.81;;;-5.02;100.00
48041;BME280;33815;48.386;11.738;2022-12-18T10:46:16;97862.72;;;-5.11;100.00
48041;BME280;33815;48.386;11.738;2022-12-18T10:51:24;97863.47;;;-5.03;100.00
48041;BME280;33815;48.386;11.738;2022-12-18T10:54:03;97870.13;;;-4.95;100.00
48041;BME280;33815;48.386;11.738;2022-12-18T10:56:31;97868.38;;;-4.90;100.00
48041;BME280;33815;48.386;11.738;2022-12-18T10:59:09;97870.88;;;-4.89;100.00
48041;BME280;33815;48.386;11.738;2022-12-18T11:01:53;97866.59;;;-4.85;100.00
48041;BME280;33815;48.386;11.738;2022-12-18T11:04:25;97876.91;;;-4.94;100.00
48041;BME280;33815;48.386;11.738;2022-12-18T11:09:24;97864.28;;;-5.01;100.00
48041;BME280;33815;48.386;11.738;2022-12-18T11:11:51;97858.34;;;-5.01;100.00
48041;BME280;33815;48.386;11.738;2022-12-18T11:14:22;97868.47;;;-4.96;100.00
48041;BME280;33815;48.386;11.738;2022-12-18T11:16:49;97863.25;;;-4.89;100.00
48041;BME280;33815;48.386;11.738;2022-12-18T11:19:26;97844.88;;;-5.08;100.00
48041;BME280;33815;48.386;11.738;2022-12-18T11:21:53;97877.72;;;-4.94;100.00
48041;BME280;33815;48.386;11.738;2022-12-18T11:24:32;97876.84;;;-4.91;100.00
48041;BME280;33815;48.386;11.738;2022-12-18T11:27:04;97862.56;;;-5.00;100.00
48041;BME280;33815;48.386;11.738;2022-12-18T11:29:34;97876.28;;;-5.10;100.00
48041;BME280;33815;48.386;11.738;2022-12-18T11:34:46;97880.22;;;-4.89;100.00
48041;BME280;33815;48.386;11.738;2022-12-18T11:37:14;97877.69;;;-4.92;100.00
48041;BME280;33815;48.386;11.738;2022-12-18T11:40:01;97859.19;;;-5.01;100.00
48041;BME280;33815;48.386;11.738;2022-12-18T11:42:35;97862.22;;;-4.78;100.00
48041;BME280;33815;48.386;11.738;2022-12-18T11:45:40;97866.44;;;-4.76;100.00
48041;BME280;33815;48.386;11.738;2022-12-18T11:48:21;97858.75;;;-4.73;100.00
48041;BME280;33815;48.386;11.738;2022-12-18T11:50:52;97850.19;;;-4.66;100.00
48041;BME280;33815;48.386;11.738;2022-12-18T11:53:19;97855.47;;;-4.78;100.00
48041;BME280;33815;48.386;11.738;2022-12-18T11:56:26;97855.53;;;-4.81;100.00
48041;BME280;33815;48.386;11.738;2022-12-18T12:01:54;97853.66;;;-4.73;100.00
48041;BME280;33815;48.386;11.738;2022-12-18T12:09:43;97855.59;;;-4.87;100.00
48041;BME280;33815;48.386;11.738;2022-12-18T12:21:02;97824.38;;;-4.97;100.00
48041;BME280;33815;48.386;11.738;2022-12-18T12:23:39;97828.56;;;-4.93;100.00
48041;BME280;33815;48.386;11.738;2022-12-18T12:26:10;97830.78;;;-4.73;100.00
48041;BME280;33815;48.386;11.738;2022-12-18T12:36:30;97817.38;;;-4.84;100.00
48041;BME280;33815;48.386;11.738;2022-12-18T12:39:05;97802.50;;;-5.06;100.00
48041;BME280;33815;48.386;11.738;2022-12-18T12:41:33;97815.13;;;-5.01;100.00
48041;BME280;33815;48.386;11.738;2022-12-18T12:44:27;97817.59;;;-4.95;100.00
48041;BME280;33815;48.386;11.738;2022-12-18T12:47:00;97816.91;;;-5.06;100.00
48041;BME280;33815;48.386;11.738;2022-12-18T12:49:31;97821.22;;;-5.11;100.00
48041;BME280;33815;48.386;11.738;2022-12-18T12:52:05;97804.31;;;-5.14;100.00
48041;BME280;33815;48.386;11.738;2022-12-18T12:54:32;97828.38;;;-4.80;100.00
48041;BME280;33815;48.386;11.738;2022-12-18T12:57:06;97822.56;;;-4.89;100.00
48041;BME280;33815;48.386;11.738;2022-12-18T13:02:53;97831.22;;;-5.01;100.00
48041;BME280;33815;48.386;11.738;2022-12-18T13:05:42;97825.16;;;-4.92;100.00
48041;BME280;33815;48.386;11.738;2022-12-18T13:08:11;97834.41;;;-4.86;100.00
48041;BME280;33815;48.386;11.738;2022-12-18T13:10:37;97834.41;;;-4.88;100.00
48041;BME280;33815;48.386;11.738;2022-12-18T13:13:06;97836.19;;;-4.93;100.00
48041;BME280;33815;48.386;11.738;2022-12-18T13:15:49;97840.50;;;-4.96;100.00
48041;BME280;33815;48.386;11.738;2022-12-18T13:18:27;97841.59;;;-5.14;100.00
48041;BME280;33815;48.386;11.738;2022-12-18T13:30:59;97834.72;;;-5.08;100.00
48041;BME280;33815;48.386;11.738;2022-12-18T13:38:23;97836.66;;;-5.25;100.00
48041;BME280;33815;48.386;11.738;2022-12-18T13:43:41;97816.00;;;-5.04;100.00
48041;BME280;33815;48.386;11.738;2022-12-18T13:51:40;97822.72;;;-5.00;100.00
48041;BME280;33815;48.386;11.738;2022-12-18T13:54:18;97807.16;;;-5.34;100.00
48041;BME280;33815;48.386;11.738;2022-12-18T13:56:46;97825.56;;;-5.20;100.00
48041;BME280;33815;48.386;11.738;2022-12-18T13:59:24;97818.16;;;-5.34;100.00
48041;BME280;33815;48.386;11.738;2022-12-18T14:02:04;97819.75;;;-5.28;100.00
48041;BME280;33815;48.386;11.738;2022-12-18T14:04:33;97808.00;;;-5.35;100.00
48041;BME280;33815;48.386;11.738;2022-12-18T14:07:03;97813.16;;;-5.40;100.00
48041;BME280;33815;48.386;11.738;2022-12-18T14:09:53;97823.41;;;-5.46;100.00
48041;BME280;33815;48.386;11.738;2022-12-18T14:12:25;97805.84;;;-5.63;100.00
48041;BME280;33815;48.386;11.738;2022-12-18T14:17:53;97820.28;;;-5.65;100.00
48041;BME280;33815;48.386;11.738;2022-12-18T14:20:20;97830.50;;;-5.71;100.00
48041;BME280;33815;48.386;11.738;2022-12-18T14:22:47;97824.69;;;-5.81;100.00
48041;BME280;33815;48.386;11.738;2022-12-18T14:25:22;97820.81;;;-6.07;100.00
48041;BME280;33815;48.386;11.738;2022-12-18T14:27:52;97844.56;;;-6.14;100.00
48041;BME280;33815;48.386;11.738;2022-12-18T14:33:04;97829.28;;;-6.09;100.00
48041;BME280;33815;48.386;11.738;2022-12-18T14:35:31;97848.03;;;-6.21;100.00
48041;BME280;33815;48.386;11.738;2022-12-18T14:38:30;97849.00;;;-6.33;100.00
48041;BME280;33815;48.386;11.738;2022-12-18T14:41:25;97847.28;;;-6.31;100.00
48041;BME280;33815;48.386;11.738;2022-12-18T14:43:52;97849.78;;;-6.26;100.00
48041;BME280;33815;48.386;11.738;2022-12-18T14:46:41;97836.34;;;-6.38;100.00
48041;BME280;33815;48.386;11.738;2022-12-18T14:49:27;97844.03;;;-6.42;100.00